Time;durP1;ratioP1;P1;durP2;ratioP2;P2;SDS_P1;SDS_P2;PMS_P1;PMS_P2;Temp;Humidity;BMP_temperature;BMP_pressure;BME280_temperature;BME280_humidity;BME280_pressure;Samples;Min_cycle;Max_cycle;Signal;HPM_P1;HPM_P2
2021/12/06 12:36:27;;;;;;;1.00;0.80;;;;;;;;;;6219867;22;20028;-81
2021/12/06 12:38:56;;;;;;;1.33;1.00;;;;;;;;;;6215735;23;20013;-81
2021/12/06 12:41:24;;;;;;;1.20;1.10;;;;;;;;;;6217576;23;20071;-82
2021/12/06 12:43:54;;;;;;;1.10;1.00;;;;;;;;;;6217238;23;20005;-82
2021/12/06 12:46:30;;;;;;;1.00;0.90;;;;;;;;;;6217444;23;20001;-82
2021/12/06 12:49:03;;;;;;;2.13;0.85;;;;;;;;;;6217182;23;20054;-83
2021/12/06 17:29:17;;;;;;;0.98;0.80;;;;;;;;;;6243041;23;20308;-86
2021/12/06 17:31:46;;;;;;;1.70;1.30;;;;;;;;;;6247198;23;20015;-88
2021/12/06 17:34:16;;;;;;;1.30;0.97;;;;;;;;;;6247851;22;19992;-88
2021/12/06 17:36:51;;;;;;;1.50;1.00;;;;;;;;;;6247348;22;20028;-87
2021/12/06 17:39:19;;;;;;;0.77;0.77;;;;;;;;;;6247517;22;20003;-87
2021/12/06 17:41:47;;;;;;;1.13;0.90;;;;;;;;;;6247151;22;20038;-87
2021/12/06 17:44:23;;;;;;;2.40;1.80;;;;;;;;;;6245488;22;20008;-86
2021/12/06 17:46:49;;;;;;;3.50;1.83;;;;;;;;;;6246883;22;19996;-84
2021/12/06 17:49:17;;;;;;;1.42;1.33;;;;;;;;;;6245642;23;20423;-87
2021/12/06 17:51:44;;;;;;;2.13;1.20;;;;;;;;;;6246891;22;20423;-83
2021/12/06 17:54:13;;;;;;;1.65;1.30;;;;;;;;;;6246422;22;20080;-85
2021/12/06 17:56:42;;;;;;;2.15;1.10;;;;;;;;;;6245084;23;19996;-85
2021/12/06 17:59:08;;;;;;;2.05;1.33;;;;;;;;;;6246793;22;20004;-83
2021/12/06 18:01:37;;;;;;;2.50;1.40;;;;;;;;;;6246863;22;20011;-83
2021/12/06 18:04:08;;;;;;;2.58;1.60;;;;;;;;;;6245175;23;20073;-84
2021/12/06 18:06:34;;;;;;;1.35;1.25;;;;;;;;;;6245223;22;20069;-84
2021/12/06 18:08:59;;;;;;;4.82;2.45;;;;;;;;;;6246972;22;20004;-84
2021/12/06 18:11:25;;;;;;;1.35;1.25;;;;;;;;;;6245173;23;20323;-85
2021/12/06 18:13:50;;;;;;;2.40;1.70;;;;;;;;;;6245163;23;20004;-85
2021/12/06 18:16:17;;;;;;;0.90;0.90;;;;;;;;;;6246853;22;20101;-84
2021/12/06 18:18:43;;;;;;;1.77;1.50;;;;;;;;;;6245447;23;20343;-85
2021/12/06 18:21:12;;;;;;;1.25;1.05;;;;;;;;;;6246774;22;20003;-85
2021/12/06 18:23:38;;;;;;;5.45;1.70;;;;;;;;;;6246644;22;20084;-84
2021/12/06 18:26:04;;;;;;;3.47;2.03;;;;;;;;;;6246575;22;20302;-85
2021/12/06 18:28:34;;;;;;;1.65;1.45;;;;;;;;;;6242442;22;20086;-89
2021/12/06 18:30:59;;;;;;;1.75;1.30;;;;;;;;;;6216567;23;20087;-90
2021/12/06 18:33:25;;;;;;;1.30;1.20;;;;;;;;;;6216653;23;20058;-90
2021/12/06 18:35:50;;;;;;;0.93;0.90;;;;;;;;;;6190808;23;20428;-91
2021/12/06 18:38:21;;;;;;;2.22;1.40;;;;;;;;;;6190762;23;20138;-90
2021/12/06 18:40:52;;;;;;;1.00;0.90;;;;;;;;;;6217108;23;20001;-90
2021/12/06 18:43:34;;;;;;;3.42;1.40;;;;;;;;;;6217146;23;20011;-89
2021/12/06 18:46:04;;;;;;;6.05;2.70;;;;;;;;;;6191034;23;20015;-90
2021/12/06 18:48:32;;;;;;;1.80;1.40;;;;;;;;;;6190751;23;20000;-89
2021/12/06 18:50:59;;;;;;;1.70;1.20;;;;;;;;;;6218038;23;20328;-90
2021/12/06 18:53:25;;;;;;;3.00;1.90;;;;;;;;;;6216899;23;20001;-88
2021/12/06 18:55:50;;;;;;;4.88;3.13;;;;;;;;;;6189550;23;20000;-89
2021/12/06 18:58:16;;;;;;;2.50;2.25;;;;;;;;;;6189439;23;20000;-89
2021/12/06 19:00:42;;;;;;;1.83;1.35;;;;;;;;;;6191295;23;20009;-85
2021/12/06 19:03:07;;;;;;;2.28;1.50;;;;;;;;;;6216400;23;20020;-87
2021/12/06 19:05:33;;;;;;;1.92;1.27;;;;;;;;;;6189608;23;20045;-85
2021/12/06 19:08:00;;;;;;;1.45;1.20;;;;;;;;;;6189436;23;20091;-84
2021/12/06 19:10:27;;;;;;;1.23;1.00;;;;;;;;;;6216080;23;20087;-85
2021/12/06 19:12:53;;;;;;;1.15;1.13;;;;;;;;;;6215987;23;20020;-83
2021/12/06 19:15:20;;;;;;;1.38;1.02;;;;;;;;;;6216001;23;20332;-83
2021/12/06 19:17:47;;;;;;;1.67;1.20;;;;;;;;;;6215933;23;20005;-84
2021/12/06 19:20:14;;;;;;;2.80;1.40;;;;;;;;;;6189277;23;20066;-83
2021/12/06 19:22:41;;;;;;;2.40;2.13;;;;;;;;;;6215838;23;20012;-82
2021/12/06 19:25:08;;;;;;;2.20;1.55;;;;;;;;;;6215967;23;20009;-89
2021/12/06 19:27:36;;;;;;;3.05;2.30;;;;;;;;;;6189951;23;20009;-87
2021/12/06 19:30:04;;;;;;;5.53;3.72;;;;;;;;;;6232545;23;20054;-86
2021/12/06 19:32:29;;;;;;;3.72;2.60;;;;;;;;;;6245933;22;20488;-86
2021/12/06 19:34:55;;;;;;;2.75;2.53;;;;;;;;;;6244214;22;20008;-87
2021/12/06 19:37:21;;;;;;;4.30;3.08;;;;;;;;;;6247162;22;20007;-89
2021/12/06 19:39:47;;;;;;;3.90;2.00;;;;;;;;;;6244992;23;20008;-85
2021/12/06 19:42:16;;;;;;;2.47;1.83;;;;;;;;;;6244626;23;20012;-86
2021/12/06 19:44:42;;;;;;;3.10;2.42;;;;;;;;;;6244398;22;20031;-89
2021/12/06 19:47:13;;;;;;;35.15;13.38;;;;;;;;;;6246504;23;20008;-85
2021/12/06 19:49:40;;;;;;;2.50;1.80;;;;;;;;;;6248411;22;20000;-87
2021/12/06 19:52:07;;;;;;;2.53;1.90;;;;;;;;;;6245637;23;20000;-91
2021/12/06 19:54:33;;;;;;;13.38;5.10;;;;;;;;;;6247003;22;20000;-88
2021/12/06 19:56:59;;;;;;;32.72;10.38;;;;;;;;;;6246644;22;20041;-88
2021/12/06 19:59:25;;;;;;;35.75;12.23;;;;;;;;;;6246830;22;20059;-89
2021/12/06 20:01:53;;;;;;;35.85;18.85;;;;;;;;;;6246607;23;20012;-87
2021/12/06 20:04:19;;;;;;;7.72;5.50;;;;;;;;;;6247352;22;20008;-86
2021/12/06 20:06:45;;;;;;;2.92;2.30;;;;;;;;;;6249036;22;20071;-86
2021/12/06 20:09:10;;;;;;;2.78;2.10;;;;;;;;;;6247941;22;20003;-84
2021/12/06 20:11:36;;;;;;;1.50;1.17;;;;;;;;;;6248047;23;20007;-86
2021/12/06 20:14:02;;;;;;;1.25;1.15;;;;;;;;;;6248041;22;20056;-85
2021/12/06 20:16:28;;;;;;;3.10;2.33;;;;;;;;;;6247960;22;20000;-84
2021/12/06 20:18:54;;;;;;;1.70;1.10;;;;;;;;;;6248608;22;20463;-84
2021/12/06 20:21:20;;;;;;;2.53;1.85;;;;;;;;;;6248165;22;20035;-84
2021/12/06 20:23:45;;;;;;;5.97;4.00;;;;;;;;;;6248328;22;20355;-84
2021/12/06 20:26:12;;;;;;;2.63;2.03;;;;;;;;;;6248123;22;20011;-84
2021/12/06 20:28:37;;;;;;;2.60;1.80;;;;;;;;;;6241610;22;20009;-87
2021/12/06 20:31:07;;;;;;;1.92;1.70;;;;;;;;;;6190850;23;20015;-84
2021/12/06 20:33:32;;;;;;;3.35;2.75;;;;;;;;;;6217595;23;20001;-87
2021/12/06 20:35:58;;;;;;;2.55;1.80;;;;;;;;;;6217570;23;20011;-85
2021/12/06 20:38:25;;;;;;;3.38;1.90;;;;;;;;;;6217406;23;20062;-86
2021/12/06 20:40:51;;;;;;;1.92;1.40;;;;;;;;;;6190779;23;20004;-84
2021/12/06 20:43:17;;;;;;;1.58;1.48;;;;;;;;;;6217352;23;19997;-83
2021/12/06 20:45:44;;;;;;;3.55;1.48;;;;;;;;;;6190699;23;20447;-83
2021/12/06 20:48:13;;;;;;;1.27;1.00;;;;;;;;;;6217307;23;20004;-85
2021/12/06 20:50:43;;;;;;;1.73;1.20;;;;;;;;;;6190746;23;20027;-84
2021/12/06 20:53:09;;;;;;;2.47;1.60;;;;;;;;;;6215758;23;20004;-84
2021/12/06 20:55:35;;;;;;;2.75;1.40;;;;;;;;;;6190422;23;20009;-84
2021/12/06 20:58:01;;;;;;;1.55;1.25;;;;;;;;;;6217183;23;20320;-83
2021/12/06 21:00:29;;;;;;;3.70;1.60;;;;;;;;;;6217302;23;20012;-84
2021/12/06 21:02:56;;;;;;;1.30;1.17;;;;;;;;;;6217346;23;20108;-83
2021/12/06 21:05:22;;;;;;;2.08;1.20;;;;;;;;;;6217035;23;20011;-84
2021/12/06 21:07:47;;;;;;;1.40;0.80;;;;;;;;;;6217225;23;19996;-83
2021/12/06 21:10:26;;;;;;;1.10;1.00;;;;;;;;;;6217294;23;20035;-83
2021/12/06 21:18:19;;;;;;;3.28;2.25;;;;;;;;;;6223093;23;20007;-82
2021/12/06 21:20:45;;;;;;;4.43;2.20;;;;;;;;;;6216933;23;20415;-83
2021/12/06 21:23:11;;;;;;;2.42;1.63;;;;;;;;;;6216854;23;20007;-83
2021/12/06 21:25:38;;;;;;;3.10;1.52;;;;;;;;;;6216758;23;20001;-83
2021/12/06 21:28:04;;;;;;;4.13;2.22;;;;;;;;;;6217197;23;20009;-83
2021/12/06 21:30:31;;;;;;;4.50;2.22;;;;;;;;;;6243681;23;20070;-83
2021/12/06 21:32:59;;;;;;;3.70;2.70;;;;;;;;;;6245689;23;20012;-83
2021/12/06 21:35:25;;;;;;;5.28;3.38;;;;;;;;;;6247209;22;20012;-83
2021/12/06 21:37:50;;;;;;;4.68;3.40;;;;;;;;;;6247204;22;20000;-83
2021/12/06 21:40:16;;;;;;;8.25;3.72;;;;;;;;;;6245493;23;20008;-83
2021/12/06 21:42:41;;;;;;;7.70;3.75;;;;;;;;;;6247338;22;20007;-83
2021/12/06 21:45:07;;;;;;;4.80;3.45;;;;;;;;;;6247447;22;20332;-83
2021/12/06 21:47:35;;;;;;;3.83;2.88;;;;;;;;;;6247149;22;20004;-84
2021/12/06 21:50:06;;;;;;;4.22;3.10;;;;;;;;;;6247086;22;20001;-84
2021/12/06 21:52:32;;;;;;;7.78;3.97;;;;;;;;;;6245409;23;20004;-83
2021/12/06 21:54:58;;;;;;;4.32;2.92;;;;;;;;;;6246995;22;19996;-83
2021/12/06 21:57:23;;;;;;;5.88;3.60;;;;;;;;;;6247054;22;20011;-84
2021/12/06 21:59:49;;;;;;;6.07;3.65;;;;;;;;;;6245344;23;20008;-84
2021/12/06 22:02:15;;;;;;;6.47;3.92;;;;;;;;;;6246937;22;20446;-84
2021/12/06 22:04:40;;;;;;;4.15;2.80;;;;;;;;;;6245313;22;20087;-83
2021/12/06 22:07:06;;;;;;;4.45;2.47;;;;;;;;;;6246995;22;20012;-84
2021/12/06 22:09:31;;;;;;;6.25;3.45;;;;;;;;;;6245304;23;20359;-84
2021/12/06 22:11:57;;;;;;;3.33;2.50;;;;;;;;;;6247012;22;20001;-84
2021/12/06 22:14:24;;;;;;;5.85;3.63;;;;;;;;;;6247007;22;20305;-83
2021/12/06 22:16:52;;;;;;;5.70;2.53;;;;;;;;;;6246890;22;20078;-84
2021/12/06 22:19:18;;;;;;;3.08;2.58;;;;;;;;;;6246865;22;20011;-84
2021/12/06 22:21:45;;;;;;;6.35;3.63;;;;;;;;;;6247044;22;20035;-84
2021/12/06 22:24:11;;;;;;;3.38;2.40;;;;;;;;;;6246264;22;20004;-83
2021/12/06 22:26:37;;;;;;;4.78;2.80;;;;;;;;;;6244971;23;20449;-83
2021/12/06 22:29:02;;;;;;;4.93;3.30;;;;;;;;;;6245128;23;20016;-84
